createdAt,value
2023-08-08T00:02:25.281Z,0.97
2023-08-08T00:04:53.173Z,1.00
2023-08-08T00:07:21.091Z,0.93
2023-08-08T00:09:49.047Z,0.80
2023-08-08T00:12:16.919Z,0.90
2023-08-08T00:14:44.798Z,1.00
2023-08-08T00:17:14.130Z,0.80
2023-08-08T00:19:43.846Z,0.90
2023-08-08T00:22:11.780Z,0.80
2023-08-08T00:24:39.614Z,1.00
2023-08-08T00:27:07.568Z,0.80
2023-08-08T00:29:35.557Z,1.03
2023-08-08T00:32:03.727Z,0.90
2023-08-08T00:34:32.922Z,0.93
2023-08-08T00:37:00.758Z,1.00
2023-08-08T00:39:28.919Z,1.00
2023-08-08T00:41:57.232Z,1.00
2023-08-08T00:44:25.562Z,0.90
2023-08-08T00:46:53.534Z,1.10
2023-08-08T00:49:21.595Z,1.00
2023-08-08T00:51:52.149Z,1.00
2023-08-08T00:54:20.317Z,1.20
2023-08-08T00:56:48.785Z,1.10
2023-08-08T00:59:18.417Z,1.00
2023-08-08T01:01:46.344Z,1.00
2023-08-08T01:04:14.670Z,1.00
2023-08-08T01:06:48.077Z,1.13
2023-08-08T01:09:24.029Z,1.00
2023-08-08T01:11:52.791Z,0.90
2023-08-08T01:14:21.654Z,0.90
2023-08-08T01:16:50.929Z,1.00
2023-08-08T01:19:27.742Z,1.03
2023-08-08T01:21:56.486Z,0.80
2023-08-08T01:24:29.920Z,0.83
2023-08-08T01:26:58.002Z,1.00
2023-08-08T01:29:25.821Z,0.80
2023-08-08T01:31:53.704Z,0.90
2023-08-08T01:34:21.665Z,0.90
2023-08-08T01:36:52.513Z,0.70
2023-08-08T01:39:22.863Z,0.80
2023-08-08T01:41:52.679Z,0.87
2023-08-08T01:44:20.876Z,0.80
2023-08-08T01:46:49.237Z,1.10
2023-08-08T01:49:17.212Z,0.90
2023-08-08T01:51:45.124Z,0.90
2023-08-08T01:54:13.021Z,0.90
2023-08-08T01:56:40.993Z,0.93
2023-08-08T01:59:10.257Z,0.90
2023-08-08T02:01:38.387Z,1.00
2023-08-08T02:04:06.621Z,0.80
2023-08-08T02:06:34.646Z,0.93
2023-08-08T02:09:02.579Z,0.90
2023-08-08T02:11:30.535Z,0.90
2023-08-08T02:13:58.413Z,0.80
2023-08-08T02:16:27.769Z,0.90
2023-08-08T02:18:55.769Z,0.80
2023-08-08T02:21:23.683Z,0.93
2023-08-08T02:23:51.601Z,0.80
2023-08-08T02:26:19.492Z,1.00
2023-08-08T02:28:47.329Z,0.80
2023-08-08T02:31:21.673Z,0.90
2023-08-08T02:33:52.296Z,0.80
2023-08-08T02:36:20.679Z,0.80
2023-08-08T02:38:48.628Z,0.83
2023-08-08T02:41:16.492Z,0.80
2023-08-08T02:43:44.321Z,0.80
2023-08-08T02:46:12.179Z,0.73
2023-08-08T02:48:40.084Z,0.73
2023-08-08T02:51:09.344Z,0.90
2023-08-08T02:53:37.183Z,0.90
2023-08-08T02:56:05.181Z,0.80
2023-08-08T02:58:33.087Z,0.80
2023-08-08T03:01:01.018Z,0.80
2023-08-08T03:03:29.572Z,0.80
2023-08-08T03:05:57.460Z,0.70
2023-08-08T03:08:28.720Z,0.70
2023-08-08T03:10:56.633Z,0.83
2023-08-08T03:13:24.680Z,0.77
2023-08-08T03:15:52.497Z,0.80
2023-08-08T03:18:20.350Z,0.80
2023-08-08T03:20:48.881Z,0.90
2023-08-08T03:23:16.829Z,0.83
2023-08-08T03:25:47.052Z,0.90
2023-08-08T03:28:14.939Z,0.80
2023-08-08T03:30:42.828Z,0.80
2023-08-08T03:33:10.637Z,0.77
2023-08-08T03:35:38.577Z,0.70
2023-08-08T03:38:06.533Z,0.80
2023-08-08T03:40:34.447Z,0.80
2023-08-08T03:43:03.719Z,0.80
2023-08-08T03:45:31.565Z,1.00
2023-08-08T03:47:59.407Z,0.80
2023-08-08T03:50:27.329Z,0.83
2023-08-08T03:52:55.208Z,1.00
2023-08-08T03:55:23.109Z,0.80
2023-08-08T03:57:51.001Z,0.80
2023-08-08T04:00:20.691Z,0.80
2023-08-08T04:02:48.641Z,0.90
2023-08-08T04:05:16.661Z,0.80
2023-08-08T04:07:44.493Z,0.90
2023-08-08T04:10:13.057Z,0.70
2023-08-08T04:12:40.911Z,0.80
2023-08-08T04:15:10.514Z,0.77
2023-08-08T04:17:39.880Z,0.80
2023-08-08T04:20:08.923Z,0.77
2023-08-08T04:22:36.943Z,0.63
2023-08-08T04:25:06.609Z,0.80
2023-08-08T04:27:34.479Z,0.70
2023-08-08T04:30:02.488Z,0.70
2023-08-08T04:32:30.737Z,0.70
2023-08-08T04:34:59.945Z,0.70
2023-08-08T04:37:27.867Z,0.70
2023-08-08T04:39:55.802Z,0.93
2023-08-08T04:42:23.736Z,0.80
2023-08-08T04:44:51.584Z,0.73
2023-08-08T04:47:19.442Z,0.73
2023-08-08T04:49:47.293Z,0.97
2023-08-08T04:52:16.549Z,1.00
2023-08-08T04:54:45.324Z,0.67
2023-08-08T04:57:13.199Z,0.97
2023-08-08T04:59:41.076Z,0.87
2023-08-08T05:02:08.909Z,0.80
2023-08-08T05:04:36.738Z,0.80
2023-08-08T05:07:04.732Z,0.90
2023-08-08T05:09:34.026Z,0.97
2023-08-08T05:12:02.297Z,0.70
2023-08-08T05:14:30.548Z,0.73
2023-08-08T05:16:58.648Z,0.90
2023-08-08T05:19:26.920Z,0.77
2023-08-08T05:21:55.593Z,0.90
2023-08-08T05:24:23.681Z,0.80
2023-08-08T05:26:54.297Z,0.80
2023-08-08T05:29:22.315Z,0.80
2023-08-08T05:31:50.189Z,1.00
2023-08-08T05:34:18.003Z,0.70
2023-08-08T05:36:45.879Z,0.70
2023-08-08T05:39:14.329Z,0.70
2023-08-08T05:41:42.316Z,0.93
2023-08-08T05:44:11.528Z,0.80
2023-08-08T05:46:39.451Z,0.77
2023-08-08T05:49:07.813Z,0.70
2023-08-08T05:51:35.924Z,0.70
2023-08-08T05:54:04.071Z,0.73
2023-08-08T05:56:37.166Z,0.90
2023-08-08T05:59:05.235Z,0.80
2023-08-08T06:01:35.096Z,0.80
2023-08-08T06:04:03.017Z,0.70
2023-08-08T06:06:30.920Z,0.80
2023-08-08T06:08:59.029Z,0.80
2023-08-08T06:11:26.913Z,0.70
2023-08-08T06:13:55.593Z,0.70
2023-08-08T06:16:23.586Z,0.60
2023-08-08T06:18:53.791Z,0.70
2023-08-08T06:21:21.625Z,0.70
2023-08-08T06:23:50.449Z,0.83
2023-08-08T06:26:18.420Z,0.60
2023-08-08T06:28:46.289Z,0.73
2023-08-08T06:31:14.186Z,0.63
2023-08-08T06:33:42.160Z,0.70
2023-08-08T06:36:11.451Z,0.90
2023-08-08T06:38:39.302Z,0.80
2023-08-08T06:41:07.144Z,0.70
2023-08-08T06:43:35.014Z,0.90
2023-08-08T06:46:03.171Z,0.90
2023-08-08T06:48:31.087Z,0.90
2023-08-08T06:50:58.992Z,0.73
2023-08-08T06:53:28.325Z,0.80
2023-08-08T06:55:56.210Z,0.90
2023-08-08T06:58:24.190Z,1.00
2023-08-08T07:00:53.034Z,1.07
2023-08-08T07:03:20.923Z,0.80
2023-08-08T07:05:52.968Z,0.80
2023-08-08T07:08:21.094Z,0.90
2023-08-08T07:10:50.455Z,0.90
2023-08-08T07:13:18.484Z,0.70
2023-08-08T07:15:46.461Z,0.97
2023-08-08T07:18:14.472Z,0.87
2023-08-08T07:20:42.361Z,0.80
2023-08-08T07:23:10.230Z,0.80
2023-08-08T07:25:38.099Z,0.80
2023-08-08T07:28:07.709Z,0.90
2023-08-08T07:30:35.648Z,0.80
2023-08-08T07:33:03.501Z,1.07
2023-08-08T07:35:31.391Z,0.90
2023-08-08T07:37:59.251Z,1.10
2023-08-08T07:40:27.156Z,0.80
2023-08-08T07:42:55.217Z,0.90
2023-08-08T07:45:24.516Z,0.93
2023-08-08T07:47:52.379Z,0.80
2023-08-08T07:50:20.544Z,1.10
2023-08-08T07:52:48.491Z,0.93
2023-08-08T07:55:17.394Z,0.70
2023-08-08T07:57:45.274Z,0.70
2023-08-08T08:00:14.115Z,0.70
2023-08-08T08:02:45.397Z,0.80
2023-08-08T08:05:13.643Z,0.80
2023-08-08T08:07:41.841Z,0.80
2023-08-08T08:10:11.662Z,0.70
2023-08-08T08:12:39.692Z,0.50
2023-08-08T08:15:08.790Z,0.90
2023-08-08T08:17:36.829Z,0.70
2023-08-08T08:20:12.011Z,0.90
2023-08-08T08:22:40.404Z,0.90
2023-08-08T08:25:12.891Z,0.87
2023-08-08T08:27:40.770Z,0.90
2023-08-08T08:30:11.003Z,0.90
2023-08-08T08:32:39.258Z,0.80
2023-08-08T08:35:09.941Z,0.67
2023-08-08T08:37:37.888Z,0.80
2023-08-08T08:40:06.623Z,0.77
2023-08-08T08:42:35.066Z,0.67
2023-08-08T08:45:04.857Z,1.00
2023-08-08T08:47:33.680Z,1.00
2023-08-08T08:50:03.299Z,0.87
2023-08-08T08:52:32.703Z,0.93
2023-08-08T08:55:00.591Z,0.80
2023-08-08T08:57:28.448Z,0.90
2023-08-08T08:59:56.281Z,0.90
2023-08-08T09:02:25.384Z,0.77
2023-08-08T09:04:53.520Z,0.80
2023-08-08T09:07:23.133Z,0.70
2023-08-08T09:09:52.427Z,0.80
2023-08-08T09:12:20.912Z,0.70
2023-08-08T09:14:50.210Z,0.70
2023-08-08T09:17:18.035Z,1.10
2023-08-08T09:19:46.312Z,1.10
2023-08-08T09:22:15.142Z,1.00
2023-08-08T09:24:43.437Z,1.00
2023-08-08T09:27:12.809Z,0.90
2023-08-08T09:29:40.917Z,1.00
2023-08-08T09:32:09.384Z,0.70
2023-08-08T09:34:37.526Z,0.80
2023-08-08T09:37:06.426Z,0.80
2023-08-08T09:39:34.315Z,0.93
2023-08-08T09:42:05.360Z,1.40
2023-08-08T09:44:36.295Z,1.60
2023-08-08T09:47:04.353Z,1.33
2023-08-08T09:49:35.459Z,1.03
2023-08-08T09:52:05.108Z,0.97
2023-08-08T09:54:33.253Z,0.90
2023-08-08T09:57:01.199Z,0.97
2023-08-08T09:59:29.243Z,0.80
2023-08-08T10:01:59.652Z,1.00
2023-08-08T10:04:27.993Z,0.80
2023-08-08T10:06:55.998Z,0.70
2023-08-08T10:09:23.877Z,0.90
2023-08-08T10:11:51.741Z,0.80
2023-08-08T10:14:19.792Z,0.80
2023-08-08T10:16:50.124Z,0.77
2023-08-08T10:19:24.314Z,0.80
2023-08-08T10:21:59.318Z,1.00
2023-08-08T10:24:27.453Z,1.00
2023-08-08T10:26:57.534Z,0.80
2023-08-08T10:29:27.793Z,0.73
2023-08-08T10:31:59.916Z,0.97
2023-08-08T10:34:39.049Z,0.67
2023-08-08T10:37:07.773Z,0.77
2023-08-08T10:39:35.625Z,0.70
2023-08-08T10:42:06.295Z,1.00
2023-08-08T10:44:34.152Z,0.73
2023-08-08T10:47:02.643Z,0.83
2023-08-08T10:49:31.871Z,0.77
2023-08-08T10:52:04.912Z,0.60
2023-08-08T10:54:34.589Z,0.83
2023-08-08T10:57:02.586Z,0.70
2023-08-08T10:59:38.922Z,0.70
2023-08-08T11:02:08.806Z,0.70
2023-08-08T11:04:38.416Z,0.70
2023-08-08T11:07:06.566Z,0.80
2023-08-08T11:09:34.445Z,0.80
2023-08-08T11:12:02.579Z,0.70
2023-08-08T11:14:31.579Z,0.73
2023-08-08T11:16:59.390Z,0.87
2023-08-08T11:19:27.289Z,0.70
2023-08-08T11:21:56.655Z,0.60
2023-08-08T11:24:24.525Z,0.70
2023-08-08T11:26:53.280Z,0.60
2023-08-08T11:29:21.314Z,0.70
2023-08-08T11:31:50.689Z,0.73
2023-08-08T11:34:19.886Z,0.60
2023-08-08T11:36:48.331Z,0.70
2023-08-08T11:39:17.627Z,0.63
2023-08-08T11:41:45.685Z,0.60
2023-08-08T11:44:14.537Z,0.60
2023-08-08T11:46:46.701Z,0.70
2023-08-08T11:49:18.697Z,0.83
2023-08-08T11:51:47.405Z,0.70
2023-08-08T11:54:17.081Z,0.50
2023-08-08T11:56:45.368Z,0.60
2023-08-08T11:59:13.589Z,0.90
2023-08-08T12:01:44.106Z,0.70
2023-08-08T12:04:12.026Z,1.00
2023-08-08T12:06:41.234Z,1.60
2023-08-08T12:09:09.149Z,1.80
2023-08-08T12:11:39.189Z,2.00
2023-08-08T12:14:09.768Z,1.70
2023-08-08T12:16:39.924Z,1.30
2023-08-08T12:19:10.171Z,1.20
2023-08-08T12:21:38.070Z,1.20
2023-08-08T12:24:06.197Z,1.43
2023-08-08T12:26:34.384Z,2.10
2023-08-08T12:29:03.631Z,1.60
2023-08-08T12:31:31.548Z,1.60
2023-08-08T12:33:59.464Z,1.50
2023-08-08T12:36:27.346Z,1.80
2023-08-08T12:38:55.242Z,1.30
2023-08-08T12:41:23.078Z,1.23
2023-08-08T12:43:51.097Z,1.47
2023-08-08T12:46:20.372Z,1.60
2023-08-08T12:48:48.336Z,1.07
2023-08-08T12:51:17.242Z,1.40
2023-08-08T12:53:45.778Z,1.83
2023-08-08T12:56:13.701Z,1.93
2023-08-08T12:58:41.949Z,1.40
2023-08-08T13:01:10.159Z,1.50
2023-08-08T13:03:43.268Z,1.50
2023-08-08T13:06:14.531Z,1.37
2023-08-08T13:08:42.379Z,1.27
2023-08-08T13:11:10.512Z,1.30
2023-08-08T13:13:38.411Z,0.90
2023-08-08T13:16:06.481Z,1.00
2023-08-08T13:18:34.366Z,1.30
2023-08-08T13:21:03.578Z,1.53
2023-08-08T13:23:31.433Z,1.40
2023-08-08T13:25:59.335Z,1.10
2023-08-08T13:28:28.093Z,0.90
2023-08-08T13:30:55.974Z,1.10
2023-08-08T13:33:23.954Z,0.83
2023-08-08T13:35:51.842Z,0.80
2023-08-08T13:38:21.050Z,1.00
2023-08-08T13:40:48.908Z,1.00
2023-08-08T13:43:17.042Z,1.07
2023-08-08T13:45:45.492Z,1.30
2023-08-08T13:48:13.444Z,1.70
2023-08-08T13:50:41.261Z,1.20
2023-08-08T13:53:09.106Z,1.20
2023-08-08T13:55:41.150Z,1.40
2023-08-08T13:58:10.112Z,1.30
2023-08-08T14:00:38.141Z,1.50
2023-08-08T14:03:06.401Z,1.10
2023-08-08T14:05:34.584Z,1.00
2023-08-08T14:08:02.449Z,0.90
2023-08-08T14:10:30.809Z,0.77
2023-08-08T14:13:00.106Z,0.80
2023-08-08T14:15:28.483Z,1.00
2023-08-08T14:17:56.360Z,0.80
2023-08-08T14:20:25.267Z,0.97
2023-08-08T14:22:53.180Z,0.70
2023-08-08T14:25:21.057Z,0.90
2023-08-08T14:27:48.979Z,1.10
2023-08-08T14:30:18.285Z,1.90
2023-08-08T14:32:46.196Z,1.63
2023-08-08T14:35:14.091Z,1.50
2023-08-08T14:37:41.986Z,1.70
2023-08-08T14:40:11.068Z,1.83
2023-08-08T14:42:38.971Z,1.40
2023-08-08T14:45:08.033Z,1.63
2023-08-08T14:47:37.290Z,2.10
2023-08-08T14:50:06.064Z,1.40
2023-08-08T14:52:33.982Z,0.97
2023-08-08T14:55:01.851Z,1.30
2023-08-08T14:57:29.731Z,1.20
2023-08-08T14:59:57.591Z,1.17
2023-08-08T15:02:25.589Z,1.00
2023-08-08T15:04:55.426Z,0.80
2023-08-08T15:07:23.475Z,0.70
2023-08-08T15:09:52.498Z,0.70
2023-08-08T15:12:23.300Z,0.60
2023-08-08T15:14:52.001Z,1.30
2023-08-08T15:17:19.824Z,0.80
2023-08-08T15:19:47.723Z,0.97
2023-08-08T15:22:16.951Z,0.97
2023-08-08T15:24:44.806Z,1.47
2023-08-08T15:27:12.675Z,1.30
2023-08-08T15:29:40.518Z,1.40
2023-08-08T15:32:08.498Z,1.03
2023-08-08T15:34:37.433Z,1.37
2023-08-08T15:37:05.468Z,2.10
2023-08-08T15:39:34.762Z,2.10
2023-08-08T15:42:02.612Z,1.87
2023-08-08T15:44:30.461Z,3.30
2023-08-08T15:46:58.388Z,2.23
2023-08-08T15:49:26.644Z,1.80
2023-08-08T15:51:57.778Z,2.13
2023-08-08T15:54:25.675Z,2.20
2023-08-08T15:56:55.061Z,1.50
2023-08-08T15:59:23.405Z,1.60
2023-08-08T16:01:51.380Z,1.13
2023-08-08T16:04:19.222Z,0.80
2023-08-08T16:06:48.701Z,0.80
2023-08-08T16:09:16.528Z,1.30
2023-08-08T16:11:44.387Z,0.90
2023-08-08T16:14:13.941Z,1.13
2023-08-08T16:16:42.161Z,1.30
2023-08-08T16:19:10.198Z,1.30
2023-08-08T16:21:39.347Z,1.07
2023-08-08T16:24:07.925Z,1.40
2023-08-08T16:26:35.822Z,1.20
2023-08-08T16:29:03.788Z,1.50
2023-08-08T16:31:33.316Z,1.50
2023-08-08T16:34:02.514Z,1.20
2023-08-08T16:36:30.418Z,1.47
2023-08-08T16:39:08.968Z,1.10
2023-08-08T16:41:44.549Z,1.60
2023-08-08T16:44:12.422Z,1.40
2023-08-08T16:46:42.145Z,1.80
2023-08-08T16:49:10.118Z,1.50
2023-08-08T16:51:37.976Z,1.37
2023-08-08T16:54:07.095Z,1.30
2023-08-08T16:56:34.977Z,1.73
2023-08-08T16:59:02.797Z,1.17
2023-08-08T17:01:31.108Z,1.53
2023-08-08T17:04:00.402Z,1.23
2023-08-08T17:06:28.325Z,1.43
2023-08-08T17:08:56.208Z,1.70
2023-08-08T17:11:27.284Z,1.30
2023-08-08T17:13:57.569Z,1.43
2023-08-08T17:16:25.642Z,1.60
2023-08-08T17:18:53.959Z,1.90
2023-08-08T17:21:23.288Z,1.60
2023-08-08T17:23:51.156Z,1.37
2023-08-08T17:26:19.052Z,1.43
2023-08-08T17:28:47.878Z,1.40
2023-08-08T17:31:15.735Z,1.57
2023-08-08T17:33:43.682Z,1.40
2023-08-08T17:36:11.532Z,1.53
2023-08-08T17:38:40.815Z,1.70
2023-08-08T17:41:08.820Z,1.57
2023-08-08T17:43:36.739Z,1.40
2023-08-08T17:46:05.000Z,1.80
2023-08-08T17:48:32.982Z,2.00
2023-08-08T17:51:00.851Z,1.40
2023-08-08T17:53:30.305Z,2.00
2023-08-08T17:55:59.613Z,1.57
2023-08-08T17:58:27.631Z,1.30
2023-08-08T18:00:55.504Z,1.20
2023-08-08T18:03:23.364Z,1.30
2023-08-08T18:05:51.274Z,1.10
2023-08-08T18:08:19.106Z,1.97
2023-08-08T18:10:46.981Z,1.67
2023-08-08T18:13:16.474Z,2.10
2023-08-08T18:15:44.303Z,1.90
2023-08-08T18:18:12.181Z,2.13
2023-08-08T18:20:40.896Z,1.60
2023-08-08T18:23:08.930Z,1.10
2023-08-08T18:25:36.802Z,1.00
2023-08-08T18:28:05.708Z,1.10
2023-08-08T18:30:35.011Z,2.03
2023-08-08T18:33:03.094Z,2.00
2023-08-08T18:35:30.946Z,2.63
2023-08-08T18:37:58.815Z,2.40
2023-08-08T18:40:26.642Z,2.53
2023-08-08T18:42:54.460Z,1.87
2023-08-08T18:45:22.413Z,1.77
2023-08-08T18:47:51.732Z,1.37
2023-08-08T18:50:19.748Z,1.20
2023-08-08T18:52:49.353Z,1.00
2023-08-08T18:55:19.251Z,0.90
2023-08-08T18:57:47.089Z,0.80
2023-08-08T19:00:15.494Z,1.03
2023-08-08T19:02:43.511Z,1.00
2023-08-08T19:05:12.814Z,0.87
2023-08-08T19:07:40.713Z,0.83
2023-08-08T19:10:09.536Z,0.87
2023-08-08T19:12:37.436Z,1.00
2023-08-08T19:15:06.065Z,0.90
2023-08-08T19:17:45.413Z,1.13
2023-08-08T19:20:24.391Z,1.00
2023-08-08T19:22:52.314Z,0.87
2023-08-08T19:25:20.473Z,0.93
2023-08-08T19:27:48.417Z,0.90
2023-08-08T19:30:16.334Z,0.90
2023-08-08T19:32:44.245Z,0.90
2023-08-08T19:35:12.122Z,0.90
2023-08-08T19:37:41.348Z,0.90
2023-08-08T19:40:10.148Z,1.00
2023-08-08T19:42:39.916Z,1.00
2023-08-08T19:45:08.625Z,0.90
2023-08-08T19:47:36.683Z,0.90
2023-08-08T19:50:04.903Z,0.93
2023-08-08T19:52:32.805Z,1.17
2023-08-08T19:55:03.536Z,0.90
2023-08-08T19:57:31.536Z,1.20
2023-08-08T19:59:59.449Z,1.20
2023-08-08T20:02:30.254Z,1.40
2023-08-08T20:04:59.758Z,1.63
2023-08-08T20:07:29.851Z,1.90
2023-08-08T20:09:57.739Z,2.00
2023-08-08T20:12:27.038Z,2.10
2023-08-08T20:14:54.901Z,1.93
2023-08-08T20:17:22.794Z,1.50
2023-08-08T20:19:50.841Z,1.57
2023-08-08T20:22:18.681Z,1.17
2023-08-08T20:24:49.438Z,1.43
2023-08-08T20:27:17.401Z,1.20
2023-08-08T20:29:46.627Z,1.10
2023-08-08T20:32:14.488Z,1.00
2023-08-08T20:34:42.365Z,1.10
2023-08-08T20:37:11.440Z,1.10
2023-08-08T20:39:39.473Z,1.10
2023-08-08T20:42:07.659Z,1.10
2023-08-08T20:44:35.806Z,1.10
2023-08-08T20:47:05.936Z,1.20
2023-08-08T20:49:34.040Z,1.13
2023-08-08T20:52:01.968Z,1.10
2023-08-08T20:54:29.943Z,1.00
2023-08-08T20:56:59.125Z,1.10
2023-08-08T20:59:27.829Z,0.90
2023-08-08T21:01:56.215Z,1.17
2023-08-08T21:04:26.183Z,1.40
2023-08-08T21:06:54.169Z,1.80
2023-08-08T21:09:22.158Z,2.10
2023-08-08T21:11:50.073Z,1.70
2023-08-08T21:14:17.888Z,1.43
2023-08-08T21:16:45.853Z,1.40
2023-08-08T21:19:13.743Z,1.33
2023-08-08T21:21:42.905Z,1.30
2023-08-08T21:24:10.784Z,1.40
2023-08-08T21:26:40.143Z,1.20
2023-08-08T21:29:08.485Z,1.10
2023-08-08T21:31:36.388Z,1.10
2023-08-08T21:34:04.903Z,1.30
2023-08-08T21:36:32.811Z,1.20
2023-08-08T21:39:02.410Z,1.30
2023-08-08T21:41:30.284Z,1.20
2023-08-08T21:43:58.153Z,1.17
2023-08-08T21:46:26.081Z,1.20
2023-08-08T21:48:54.027Z,1.00
2023-08-08T21:51:21.885Z,0.90
2023-08-08T21:53:49.953Z,1.10
2023-08-08T21:56:19.232Z,1.10
2023-08-08T21:58:47.155Z,1.10
2023-08-08T22:01:15.435Z,1.00
2023-08-08T22:03:45.308Z,1.00
2023-08-08T22:06:13.255Z,0.90
2023-08-08T22:08:41.124Z,0.90
2023-08-08T22:11:09.217Z,1.10
2023-08-08T22:13:38.532Z,1.23
2023-08-08T22:16:06.517Z,1.10
2023-08-08T22:18:34.448Z,1.10
2023-08-08T22:21:02.711Z,1.17
2023-08-08T22:23:30.589Z,1.10
2023-08-08T22:25:58.437Z,1.00
2023-08-08T22:28:26.250Z,1.10
2023-08-08T22:30:55.600Z,1.30
2023-08-08T22:33:23.506Z,1.13
2023-08-08T22:35:51.406Z,1.20
2023-08-08T22:38:19.307Z,1.23
2023-08-08T22:40:48.106Z,1.20
2023-08-08T22:43:16.285Z,1.20
2023-08-08T22:45:44.284Z,1.00
2023-08-08T22:48:13.513Z,1.10
2023-08-08T22:50:43.912Z,1.27
2023-08-08T22:53:12.187Z,1.40
2023-08-08T22:55:40.117Z,1.20
2023-08-08T22:58:08.151Z,1.10
2023-08-08T23:00:37.435Z,1.40
2023-08-08T23:03:07.541Z,1.17
2023-08-08T23:05:36.883Z,1.30
2023-08-08T23:08:05.728Z,1.30
2023-08-08T23:10:33.690Z,1.10
2023-08-08T23:13:01.559Z,1.10
2023-08-08T23:15:29.561Z,1.20
2023-08-08T23:17:57.547Z,1.30
2023-08-08T23:20:25.597Z,1.17
2023-08-08T23:22:54.782Z,1.30
2023-08-08T23:25:24.022Z,1.70
2023-08-08T23:27:51.917Z,1.40
2023-08-08T23:30:19.829Z,1.40
2023-08-08T23:32:54.564Z,1.30
2023-08-08T23:35:23.228Z,1.40
2023-08-08T23:37:51.163Z,1.30
2023-08-08T23:40:20.380Z,1.23
2023-08-08T23:42:48.256Z,1.37
2023-08-08T23:45:16.509Z,1.10
2023-08-08T23:47:44.406Z,1.20
2023-08-08T23:50:12.611Z,1.20
2023-08-08T23:52:40.513Z,1.40
2023-08-08T23:55:10.782Z,1.30
2023-08-08T23:57:40.275Z,1.50
